createdAt,value
2023-03-26T00:00:39.269Z,94.18
2023-03-26T00:01:39.309Z,94.28
2023-03-26T00:02:39.313Z,94.28
2023-03-26T00:03:39.205Z,94.08
2023-03-26T00:04:39.240Z,94.28
2023-03-26T00:05:39.120Z,94.08
2023-03-26T00:06:39.583Z,94.18
2023-03-26T00:07:39.103Z,93.98
2023-03-26T00:08:39.860Z,94.18
2023-03-26T00:09:39.180Z,94.28
2023-03-26T00:10:39.354Z,93.98
2023-03-26T00:11:39.723Z,94.18
2023-03-26T00:12:39.453Z,94.38
2023-03-26T00:13:40.096Z,94.08
2023-03-26T00:14:38.842Z,93.98
2023-03-26T00:15:38.714Z,93.98
2023-03-26T00:16:39.374Z,93.87
2023-03-26T00:17:39.268Z,94.08
2023-03-26T00:18:39.292Z,93.73
2023-03-26T00:19:38.626Z,93.31
2023-03-26T00:20:38.673Z,93.35
2023-03-26T00:21:38.597Z,93.52
2023-03-26T00:22:38.444Z,93.56
2023-03-26T00:23:38.673Z,93.77
2023-03-26T00:24:38.340Z,93.66
2023-03-26T00:25:38.645Z,93.56
2023-03-26T00:26:39.749Z,93.21
2023-03-26T00:27:41.204Z,93.31
2023-03-26T00:28:42.582Z,93.21
2023-03-26T00:29:38.482Z,93.25
2023-03-26T00:30:38.290Z,93.56
2023-03-26T00:31:38.430Z,93.21
2023-03-26T00:33:54.294Z,92.59
2023-03-26T00:34:55.294Z,92.69
2023-03-26T00:35:55.489Z,93.01
2023-03-26T00:36:55.367Z,93.01
2023-03-26T00:37:55.241Z,93.01
2023-03-26T00:38:55.239Z,92.65
2023-03-26T00:39:55.239Z,92.24
2023-03-26T00:40:55.158Z,92.03
2023-03-26T00:41:55.178Z,92.14
2023-03-26T00:42:55.165Z,92.18
2023-03-26T00:43:55.185Z,92.08
2023-03-26T00:44:55.124Z,91.93
2023-03-26T00:45:55.312Z,91.42
2023-03-26T00:46:55.093Z,91.11
2023-03-26T00:47:55.297Z,90.90
2023-03-26T00:48:55.063Z,91.00
2023-03-26T00:49:55.195Z,91.05
2023-03-26T00:50:55.053Z,91.00
2023-03-26T00:51:55.023Z,90.90
2023-03-26T00:52:55.048Z,90.69
2023-03-26T00:53:55.468Z,90.28
2023-03-26T00:54:54.999Z,90.39
2023-03-26T00:55:55.138Z,90.08
2023-03-26T00:56:54.994Z,90.08
2023-03-26T00:57:54.981Z,89.97
2023-03-26T00:58:54.949Z,89.52
2023-03-26T00:59:54.971Z,89.22
2023-03-26T01:00:54.928Z,89.52
2023-03-26T01:01:55.010Z,88.66
2023-03-26T01:02:54.988Z,88.59
2023-03-26T01:04:05.217Z,88.90
2023-03-26T01:04:54.923Z,88.90
2023-03-26T01:05:55.016Z,88.70
2023-03-26T01:06:54.857Z,88.80
2023-03-26T01:07:54.922Z,89.01
2023-03-26T01:08:54.842Z,88.90
2023-03-26T01:09:54.804Z,89.01
2023-03-26T01:10:54.910Z,88.35
2023-03-26T01:11:54.792Z,88.00
2023-03-26T01:12:54.871Z,87.59
2023-03-26T01:13:54.774Z,87.49
2023-03-26T01:14:54.741Z,87.94
2023-03-26T01:15:54.906Z,88.24
2023-03-26T01:16:54.713Z,88.35
2023-03-26T01:17:55.015Z,88.24
2023-03-26T01:18:54.714Z,88.10
2023-03-26T01:19:54.716Z,87.59
2023-03-26T01:20:54.651Z,87.59
2023-03-26T01:21:54.663Z,87.38
2023-03-26T01:22:54.738Z,87.07
2023-03-26T01:23:54.617Z,87.28
2023-03-26T01:24:54.615Z,87.07
2023-03-26T01:25:54.828Z,86.97
2023-03-26T01:26:54.594Z,87.38
2023-03-26T01:27:54.610Z,86.72
2023-03-26T01:28:54.672Z,86.62
2023-03-26T01:29:54.601Z,86.97
2023-03-26T01:30:54.533Z,86.87
2023-03-26T01:31:54.583Z,87.18
2023-03-26T01:32:54.580Z,87.04
2023-03-26T01:33:54.505Z,86.83
2023-03-26T01:34:54.587Z,86.97
2023-03-26T01:35:54.808Z,87.38
2023-03-26T01:36:54.561Z,87.18
2023-03-26T01:37:54.642Z,87.28
2023-03-26T01:38:54.452Z,87.07
2023-03-26T01:39:54.665Z,86.77
2023-03-26T01:40:55.165Z,86.72
2023-03-26T01:41:54.526Z,86.11
2023-03-26T01:42:54.393Z,85.86
2023-03-26T01:43:54.824Z,85.86
2023-03-26T01:44:54.593Z,86.77
2023-03-26T01:45:54.565Z,87.04
2023-03-26T01:46:54.532Z,86.42
2023-03-26T01:47:54.365Z,86.42
2023-03-26T01:48:54.320Z,86.21
2023-03-26T01:49:54.377Z,86.42
2023-03-26T01:50:54.311Z,86.42
2023-03-26T01:51:54.262Z,86.48
2023-03-26T01:52:54.257Z,86.42
2023-03-26T01:53:54.250Z,86.38
2023-03-26T01:54:54.288Z,86.21
2023-03-26T01:55:54.374Z,86.83
2023-03-26T01:56:54.230Z,86.52
2023-03-26T01:57:54.235Z,87.18
2023-03-26T01:58:54.177Z,86.93
2023-03-26T01:59:54.293Z,86.27
2023-03-26T02:00:54.163Z,86.17
2023-03-26T02:01:54.306Z,85.90
2023-03-26T02:02:54.376Z,86.17
2023-03-26T02:03:54.188Z,85.80
2023-03-26T02:04:54.103Z,86.07
2023-03-26T02:05:54.290Z,86.27
2023-03-26T02:06:54.070Z,85.76
2023-03-26T02:07:54.074Z,85.21
2023-03-26T02:08:54.319Z,85.04
2023-03-26T02:09:54.146Z,85.11
2023-03-26T02:10:54.024Z,85.04
2023-03-26T02:11:54.031Z,85.14
2023-03-26T02:12:54.001Z,85.21
2023-03-26T02:13:54.121Z,85.14
2023-03-26T02:14:53.972Z,85.55
2023-03-26T02:15:54.367Z,85.76
2023-03-26T02:16:53.972Z,85.55
2023-03-26T02:17:54.517Z,85.86
2023-03-26T02:18:54.342Z,85.66
2023-03-26T02:19:54.627Z,85.76
2023-03-26T02:20:54.226Z,86.21
2023-03-26T02:21:54.337Z,86.07
2023-03-26T02:22:54.069Z,85.86
2023-03-26T02:23:54.025Z,85.76
2023-03-26T02:24:54.047Z,85.55
2023-03-26T02:25:54.335Z,85.35
2023-03-26T02:26:54.247Z,85.25
2023-03-26T02:27:54.275Z,85.00
2023-03-26T02:28:54.025Z,85.35
2023-03-26T02:29:54.088Z,84.90
2023-03-26T02:30:53.930Z,85.25
2023-03-26T02:31:54.130Z,84.90
2023-03-26T02:32:54.285Z,85.14
2023-03-26T02:33:53.855Z,85.35
2023-03-26T02:34:54.153Z,85.46
2023-03-26T02:35:54.267Z,85.14
2023-03-26T02:36:53.744Z,85.25
2023-03-26T02:37:53.840Z,85.31
2023-03-26T02:38:53.641Z,85.31
2023-03-26T02:39:54.108Z,85.11
2023-03-26T02:40:53.952Z,84.80
2023-03-26T02:41:53.917Z,84.80
2023-03-26T02:42:53.620Z,84.69
2023-03-26T02:43:53.735Z,84.90
2023-03-26T02:44:53.651Z,84.59
2023-03-26T02:45:53.901Z,84.69
2023-03-26T02:46:53.903Z,84.80
2023-03-26T02:47:53.937Z,84.55
2023-03-26T02:48:53.712Z,84.34
2023-03-26T02:49:53.528Z,84.59
2023-03-26T02:50:53.574Z,85.11
2023-03-26T02:51:53.628Z,85.25
2023-03-26T02:52:53.653Z,85.66
2023-03-26T02:53:53.499Z,86.07
2023-03-26T02:54:53.766Z,85.97
2023-03-26T02:55:54.088Z,85.86
2023-03-26T02:56:53.475Z,86.07
2023-03-26T02:57:53.618Z,86.38
2023-03-26T02:58:53.391Z,86.52
2023-03-26T02:59:53.437Z,87.04
2023-03-26T03:00:53.436Z,87.24
2023-03-26T03:01:53.532Z,87.24
2023-03-26T03:02:53.695Z,87.34
2023-03-26T03:03:53.448Z,87.34
2023-03-26T03:04:53.344Z,87.24
2023-03-26T03:05:53.668Z,87.24
2023-03-26T03:06:53.441Z,87.34
2023-03-26T03:07:53.341Z,87.24
2023-03-26T03:08:53.437Z,87.55
2023-03-26T03:09:53.428Z,87.55
2023-03-26T03:10:53.277Z,87.85
2023-03-26T03:11:53.231Z,88.06
2023-03-26T03:12:53.346Z,88.20
2023-03-26T03:13:53.304Z,88.17
2023-03-26T03:14:53.240Z,87.75
2023-03-26T03:15:53.434Z,87.75
2023-03-26T03:16:53.191Z,88.37
2023-03-26T03:17:53.439Z,88.17
2023-03-26T03:18:53.253Z,88.27
2023-03-26T03:19:53.154Z,88.37
2023-03-26T03:20:53.106Z,88.17
2023-03-26T03:21:53.131Z,88.27
2023-03-26T03:22:53.086Z,88.51
2023-03-26T03:23:53.101Z,88.51
2023-03-26T03:24:53.169Z,88.92
2023-03-26T03:25:53.600Z,89.03
2023-03-26T03:26:53.062Z,89.03
2023-03-26T03:27:53.280Z,88.82
2023-03-26T03:28:53.096Z,89.03
2023-03-26T03:29:53.064Z,89.03
2023-03-26T03:30:53.138Z,88.92
2023-03-26T03:31:52.994Z,88.68
2023-03-26T03:32:53.098Z,88.78
2023-03-26T03:33:53.010Z,88.62
2023-03-26T03:34:53.158Z,88.57
2023-03-26T03:35:53.392Z,88.47
2023-03-26T03:36:52.918Z,88.62
2023-03-26T03:37:53.023Z,89.03
2023-03-26T03:38:52.915Z,88.82
2023-03-26T03:39:52.929Z,88.62
2023-03-26T03:40:52.846Z,88.72
2023-03-26T03:41:52.870Z,88.92
2023-03-26T03:42:52.825Z,89.13
2023-03-26T03:43:52.819Z,89.03
2023-03-26T03:44:52.856Z,88.72
2023-03-26T03:45:52.879Z,88.92
2023-03-26T03:46:52.796Z,89.23
2023-03-26T03:47:52.847Z,89.23
2023-03-26T03:48:53.089Z,89.44
2023-03-26T03:49:52.786Z,89.64
2023-03-26T03:50:52.780Z,89.54
2023-03-26T03:51:52.870Z,89.44
2023-03-26T03:52:52.745Z,89.44
2023-03-26T03:53:52.714Z,89.54
2023-03-26T03:54:53.726Z,89.54
2023-03-26T03:55:53.094Z,89.64
2023-03-26T03:56:52.680Z,89.64
2023-03-26T03:57:52.762Z,89.75
2023-03-26T03:58:52.994Z,89.85
2023-03-26T03:59:52.625Z,89.75
2023-03-26T04:00:52.656Z,89.75
2023-03-26T04:01:52.588Z,89.95
2023-03-26T04:02:52.648Z,90.06
2023-03-26T04:03:52.639Z,90.16
2023-03-26T04:04:52.593Z,89.85
2023-03-26T04:05:52.656Z,90.16
2023-03-26T04:06:52.573Z,90.26
2023-03-26T04:07:52.532Z,90.51
2023-03-26T04:08:52.505Z,90.81
2023-03-26T04:09:52.577Z,90.78
2023-03-26T04:10:52.812Z,90.78
2023-03-26T04:11:52.475Z,91.13
2023-03-26T04:12:52.567Z,91.33
2023-03-26T04:13:52.596Z,91.53
2023-03-26T04:14:52.532Z,91.85
2023-03-26T04:15:52.527Z,92.16
2023-03-26T04:16:52.477Z,92.36
2023-03-26T04:17:52.927Z,92.57
2023-03-26T04:18:52.715Z,92.46
2023-03-26T04:19:52.550Z,92.36
2023-03-26T04:20:52.653Z,92.46
2023-03-26T04:21:52.437Z,92.36
2023-03-26T04:22:52.799Z,92.67
2023-03-26T04:23:52.397Z,92.87
2023-03-26T04:24:52.378Z,92.67
2023-03-26T04:25:52.485Z,92.77
2023-03-26T04:26:52.298Z,92.67
2023-03-26T04:27:52.361Z,92.67
2023-03-26T04:28:52.389Z,92.67
2023-03-26T04:29:52.532Z,92.67
2023-03-26T04:30:52.614Z,92.97
2023-03-26T04:31:52.395Z,93.08
2023-03-26T04:32:52.402Z,93.08
2023-03-26T04:33:52.247Z,92.87
2023-03-26T04:34:52.341Z,92.61
2023-03-26T04:35:53.137Z,91.06
2023-03-26T04:36:52.470Z,91.23
2023-03-26T04:37:52.511Z,91.02
2023-03-26T04:38:52.684Z,90.81
2023-03-26T04:39:52.156Z,90.67
2023-03-26T04:40:52.312Z,90.57
2023-03-26T04:41:52.153Z,90.57
2023-03-26T04:42:52.550Z,90.36
2023-03-26T04:43:52.590Z,90.16
2023-03-26T04:44:52.553Z,89.79
2023-03-26T04:45:52.274Z,89.64
2023-03-26T04:46:52.274Z,89.54
2023-03-26T04:47:52.212Z,89.54
2023-03-26T04:48:52.136Z,89.44
2023-03-26T04:49:52.173Z,89.54
2023-03-26T04:50:52.175Z,89.03
2023-03-26T04:51:52.237Z,89.03
2023-03-26T04:52:52.562Z,88.92
2023-03-26T04:53:52.056Z,88.72
2023-03-26T04:54:52.233Z,87.79
2023-03-26T04:55:52.429Z,88.10
2023-03-26T04:56:51.918Z,88.04
2023-03-26T04:57:52.299Z,88.00
2023-03-26T04:58:52.080Z,87.69
2023-03-26T04:59:52.180Z,87.49
2023-03-26T05:00:51.956Z,87.07
2023-03-26T05:01:51.888Z,87.18
2023-03-26T05:02:52.097Z,87.18
2023-03-26T05:03:51.918Z,87.18
2023-03-26T05:04:51.844Z,87.49
2023-03-26T05:05:52.354Z,87.49
2023-03-26T05:06:52.367Z,87.69
2023-03-26T05:07:52.058Z,87.69
2023-03-26T05:08:52.000Z,87.96
2023-03-26T05:09:52.280Z,88.00
2023-03-26T05:10:51.695Z,88.06
2023-03-26T05:11:52.148Z,88.20
2023-03-26T05:12:51.886Z,88.62
2023-03-26T05:13:51.644Z,88.92
2023-03-26T05:14:51.833Z,88.41
2023-03-26T05:15:51.835Z,89.03
2023-03-26T05:16:52.031Z,89.54
2023-03-26T05:17:51.878Z,89.34
2023-03-26T05:18:51.751Z,89.44
2023-03-26T05:19:52.193Z,89.23
2023-03-26T05:20:51.946Z,88.82
2023-03-26T05:21:51.723Z,89.23
2023-03-26T05:22:51.673Z,89.54
2023-03-26T05:23:51.722Z,89.34
2023-03-26T05:24:51.555Z,89.89
2023-03-26T05:25:51.710Z,89.48
2023-03-26T05:26:52.081Z,89.58
2023-03-26T05:27:51.443Z,89.64
2023-03-26T05:28:52.467Z,89.58
2023-03-26T05:29:51.949Z,89.85
2023-03-26T05:30:51.487Z,89.75
2023-03-26T05:31:52.093Z,90.30
2023-03-26T05:32:51.753Z,90.26
2023-03-26T05:33:51.544Z,90.06
2023-03-26T05:34:51.567Z,90.09
2023-03-26T05:35:51.410Z,90.81
2023-03-26T05:36:51.324Z,90.81
2023-03-26T05:37:51.333Z,90.81
2023-03-26T05:38:51.302Z,91.23
2023-03-26T05:39:51.406Z,91.23
2023-03-26T05:40:51.321Z,91.33
2023-03-26T05:41:51.301Z,91.33
2023-03-26T05:42:51.253Z,91.33
2023-03-26T05:43:51.272Z,91.02
2023-03-26T05:44:51.296Z,91.13
2023-03-26T05:45:51.570Z,91.78
2023-03-26T05:46:51.425Z,91.89
2023-03-26T05:47:51.499Z,91.95
2023-03-26T05:48:51.291Z,91.95
2023-03-26T05:49:51.210Z,91.53
2023-03-26T05:50:51.581Z,91.44
2023-03-26T05:51:53.766Z,91.53
2023-03-26T05:52:51.243Z,91.74
2023-03-26T05:53:51.121Z,91.95
2023-03-26T05:54:51.113Z,91.95
2023-03-26T05:55:51.117Z,91.64
2023-03-26T05:56:51.332Z,91.95
2023-03-26T05:57:51.143Z,92.25
2023-03-26T05:58:51.972Z,92.05
2023-03-26T05:59:51.205Z,92.25
2023-03-26T06:00:51.537Z,92.05
2023-03-26T06:01:51.315Z,92.36
2023-03-26T06:02:51.314Z,92.25
2023-03-26T06:03:51.082Z,92.25
2023-03-26T06:04:51.176Z,92.16
2023-03-26T06:05:51.025Z,92.05
2023-03-26T06:06:51.051Z,92.25
2023-03-26T06:07:51.441Z,92.46
2023-03-26T06:09:02.117Z,92.67
2023-03-26T06:09:51.296Z,92.67
2023-03-26T06:10:51.227Z,93.08
2023-03-26T06:11:50.920Z,93.08
2023-03-26T06:12:50.970Z,93.49
2023-03-26T06:13:50.887Z,93.74
2023-03-26T06:14:50.979Z,93.84
2023-03-26T06:15:50.890Z,93.80
2023-03-26T06:16:50.850Z,93.90
2023-03-26T06:17:50.890Z,93.95
2023-03-26T06:18:51.007Z,94.46
2023-03-26T06:19:50.835Z,94.36
2023-03-26T06:20:50.747Z,94.87
2023-03-26T06:21:50.811Z,95.08
2023-03-26T06:22:50.721Z,94.98
2023-03-26T06:23:50.726Z,94.77
2023-03-26T06:24:50.812Z,95.59
2023-03-26T06:25:50.700Z,95.64
2023-03-26T06:26:50.713Z,95.59
2023-03-26T06:27:50.686Z,96.05
2023-03-26T06:28:50.656Z,96.46
2023-03-26T06:29:50.651Z,96.56
2023-03-26T06:30:50.688Z,96.31
2023-03-26T06:31:50.647Z,96.05
2023-03-26T06:32:50.673Z,95.95
2023-03-26T06:33:50.597Z,96.11
2023-03-26T06:34:50.600Z,95.90
2023-03-26T06:35:50.642Z,95.70
2023-03-26T06:36:50.608Z,95.28
2023-03-26T06:37:50.552Z,95.39
2023-03-26T06:38:50.557Z,95.39
2023-03-26T06:39:50.516Z,95.28
2023-03-26T06:40:50.540Z,95.70
2023-03-26T06:41:50.542Z,95.80
2023-03-26T06:43:08.900Z,96.21
2023-03-26T06:43:50.470Z,96.31
2023-03-26T06:44:50.458Z,96.11
2023-03-26T06:45:50.426Z,96.00
2023-03-26T06:46:50.535Z,95.59
2023-03-26T06:47:50.426Z,96.00
2023-03-26T06:48:50.402Z,96.52
2023-03-26T06:49:50.465Z,96.21
2023-03-26T06:50:50.387Z,96.42
2023-03-26T06:51:50.460Z,96.68
2023-03-26T06:52:50.345Z,96.47
2023-03-26T06:53:50.331Z,96.58
2023-03-26T06:54:50.427Z,96.27
2023-03-26T06:55:50.304Z,96.11
2023-03-26T06:56:50.420Z,96.31
2023-03-26T06:57:50.329Z,96.42
2023-03-26T06:58:50.284Z,96.62
2023-03-26T06:59:50.256Z,96.72
2023-03-26T07:00:50.308Z,96.62
2023-03-26T07:01:50.259Z,96.93
2023-03-26T07:02:50.295Z,97.44
2023-03-26T07:03:50.234Z,97.24
2023-03-26T07:04:50.179Z,97.14
2023-03-26T07:05:50.196Z,97.03
2023-03-26T07:06:50.198Z,97.34
2023-03-26T07:07:50.173Z,97.19
2023-03-26T07:08:50.236Z,96.78
2023-03-26T07:09:50.112Z,96.93
2023-03-26T07:10:50.114Z,97.14
2023-03-26T07:11:50.139Z,97.24
2023-03-26T07:12:50.102Z,97.30
2023-03-26T07:13:50.071Z,97.09
2023-03-26T07:14:50.098Z,96.78
2023-03-26T07:15:50.038Z,96.89
2023-03-26T07:16:50.105Z,96.99
2023-03-26T07:17:50.122Z,96.89
2023-03-26T07:18:50.004Z,97.30
2023-03-26T07:19:49.992Z,97.25
2023-03-26T07:20:50.015Z,96.73
2023-03-26T07:21:49.975Z,96.80
2023-03-26T07:22:49.982Z,96.18
2023-03-26T07:23:49.968Z,96.28
2023-03-26T07:24:49.943Z,96.28
2023-03-26T07:25:49.925Z,96.33
2023-03-26T07:26:49.947Z,96.80
2023-03-26T07:27:49.944Z,96.53
2023-03-26T07:29:03.839Z,96.84
2023-03-26T07:29:49.885Z,97.00
2023-03-26T07:30:49.857Z,96.55
2023-03-26T07:31:49.947Z,96.28
2023-03-26T07:32:49.899Z,96.44
2023-03-26T07:33:49.813Z,96.39
2023-03-26T07:34:49.830Z,96.75
2023-03-26T07:35:49.879Z,96.14
2023-03-26T07:36:49.795Z,95.62
2023-03-26T07:37:49.783Z,96.59
2023-03-26T07:38:49.764Z,97.25
2023-03-26T07:39:49.746Z,97.52
2023-03-26T07:40:49.805Z,97.00
2023-03-26T07:41:49.713Z,97.20
2023-03-26T07:42:49.736Z,96.69
2023-03-26T07:43:49.743Z,97.36
2023-03-26T07:44:49.685Z,98.22
2023-03-26T07:45:49.679Z,99.25
2023-03-26T07:46:49.679Z,99.31
2023-03-26T07:47:49.736Z,98.90
2023-03-26T07:48:49.633Z,98.49
2023-03-26T07:49:49.607Z,97.66
2023-03-26T07:50:49.615Z,98.12
2023-03-26T07:51:49.608Z,98.53
2023-03-26T07:52:49.706Z,98.22
2023-03-26T07:53:49.592Z,98.43
2023-03-26T07:54:49.569Z,98.63
2023-03-26T07:55:49.549Z,98.79
2023-03-26T07:56:49.618Z,98.28
2023-03-26T07:57:49.515Z,97.77
2023-03-26T07:58:49.575Z,97.77
2023-03-26T07:59:49.484Z,97.72
2023-03-26T08:00:49.475Z,96.85
2023-03-26T08:01:49.482Z,96.95
2023-03-26T08:02:49.518Z,97.16
2023-03-26T08:03:49.547Z,96.81
2023-03-26T08:04:49.607Z,97.32
2023-03-26T08:05:49.414Z,96.85
2023-03-26T08:06:49.750Z,96.60
2023-03-26T08:07:49.427Z,96.56
2023-03-26T08:08:49.386Z,95.94
2023-03-26T08:09:49.357Z,95.94
2023-03-26T08:10:49.442Z,96.40
2023-03-26T08:11:49.324Z,97.03
2023-03-26T08:12:49.312Z,96.56
2023-03-26T08:13:49.315Z,96.62
2023-03-26T08:14:49.296Z,95.74
2023-03-26T08:15:49.330Z,96.40
2023-03-26T08:16:49.262Z,96.45
2023-03-26T08:17:49.491Z,96.45
2023-03-26T08:18:49.267Z,96.31
2023-03-26T08:19:49.263Z,95.74
2023-03-26T08:20:49.232Z,96.66
2023-03-26T08:21:49.218Z,96.77
2023-03-26T08:22:49.198Z,96.10
2023-03-26T08:23:50.936Z,96.35
2023-03-26T08:24:49.183Z,96.04
2023-03-26T08:25:49.173Z,95.84
2023-03-26T08:26:49.140Z,96.04
2023-03-26T08:27:49.146Z,96.56
2023-03-26T08:28:49.127Z,96.56
2023-03-26T08:29:49.099Z,96.45
2023-03-26T08:30:49.156Z,96.35
2023-03-26T08:31:49.079Z,95.74
2023-03-26T08:32:49.149Z,96.09
2023-03-26T08:33:49.178Z,96.35
2023-03-26T08:34:49.039Z,96.30
2023-03-26T08:35:49.066Z,95.78
2023-03-26T08:36:48.994Z,95.98
2023-03-26T08:37:49.034Z,95.17
2023-03-26T08:38:48.993Z,95.68
2023-03-26T08:39:48.961Z,95.64
2023-03-26T08:40:48.959Z,95.39
2023-03-26T08:41:48.983Z,94.68
2023-03-26T08:42:48.943Z,92.94
2023-03-26T08:43:48.993Z,93.70
2023-03-26T08:44:48.891Z,93.15
2023-03-26T08:45:48.902Z,92.88
2023-03-26T08:46:48.909Z,93.08
2023-03-26T08:47:48.890Z,93.76
2023-03-26T08:48:48.884Z,94.43
2023-03-26T08:49:48.837Z,92.69
2023-03-26T08:50:48.808Z,92.18
2023-03-26T08:51:48.826Z,91.05
2023-03-26T08:52:48.783Z,92.28
2023-03-26T08:53:48.810Z,91.16
2023-03-26T08:54:48.798Z,91.56
2023-03-26T08:55:48.754Z,91.22
2023-03-26T08:56:48.763Z,90.30
2023-03-26T08:57:48.746Z,90.09
2023-03-26T08:58:48.778Z,90.36
2023-03-26T08:59:48.712Z,88.51
2023-03-26T09:00:48.680Z,89.12
2023-03-26T09:01:48.728Z,88.92
2023-03-26T09:02:48.689Z,89.23
2023-03-26T09:03:48.726Z,88.31
2023-03-26T09:04:48.654Z,87.84
2023-03-26T09:05:48.620Z,87.67
2023-03-26T09:06:48.623Z,87.63
2023-03-26T09:07:48.624Z,88.31
2023-03-26T09:08:53.899Z,88.41
2023-03-26T09:09:48.612Z,87.53
2023-03-26T09:10:48.601Z,86.81
2023-03-26T09:11:48.546Z,87.26
2023-03-26T09:12:48.539Z,88.49
2023-03-26T09:13:48.561Z,87.32
2023-03-26T09:14:48.526Z,87.90
2023-03-26T09:15:48.531Z,85.93
2023-03-26T09:16:48.511Z,84.80
2023-03-26T09:17:48.512Z,85.72
2023-03-26T09:18:48.448Z,85.83
2023-03-26T09:19:48.511Z,85.11
2023-03-26T09:20:48.476Z,84.12
2023-03-26T09:21:48.416Z,85.46
2023-03-26T09:22:48.427Z,85.83
2023-03-26T09:23:48.394Z,83.98
2023-03-26T09:24:48.408Z,83.88
2023-03-26T09:25:48.392Z,83.20
2023-03-26T09:26:48.361Z,82.24
2023-03-26T09:27:48.338Z,82.69
2023-03-26T09:28:48.357Z,83.31
2023-03-26T09:29:48.391Z,82.39
2023-03-26T09:30:48.300Z,82.01
2023-03-26T09:31:48.342Z,83.25
2023-03-26T09:32:48.421Z,83.10
2023-03-26T09:33:48.272Z,81.98
2023-03-26T09:34:48.308Z,82.39
2023-03-26T09:35:48.280Z,81.87
2023-03-26T09:36:48.235Z,81.09
2023-03-26T09:37:56.902Z,82.39
2023-03-26T09:38:48.197Z,82.79
2023-03-26T09:39:48.220Z,82.14
2023-03-26T09:40:48.218Z,81.77
2023-03-26T09:41:48.154Z,82.24
2023-03-26T09:42:48.142Z,82.62
2023-03-26T09:43:48.159Z,82.98
2023-03-26T09:44:48.143Z,81.41
2023-03-26T09:45:48.125Z,81.24
2023-03-26T09:46:48.120Z,80.93
2023-03-26T09:47:48.129Z,80.08
2023-03-26T09:48:48.071Z,80.88
2023-03-26T09:49:48.100Z,81.70
2023-03-26T09:50:48.129Z,81.96
2023-03-26T09:51:48.035Z,80.57
2023-03-26T09:52:48.045Z,81.22
2023-03-26T09:53:47.998Z,80.46
2023-03-26T09:54:47.989Z,82.13
2023-03-26T09:55:48.035Z,80.94
2023-03-26T09:56:47.984Z,82.10
2023-03-26T09:57:47.990Z,83.74
2023-03-26T09:58:47.968Z,84.05
2023-03-26T09:59:47.921Z,84.29
2023-03-26T10:00:48.005Z,85.46
2023-03-26T10:01:47.913Z,85.91
2023-03-26T10:02:47.948Z,87.24
2023-03-26T10:03:47.866Z,87.96
2023-03-26T10:04:47.905Z,89.04
2023-03-26T10:05:47.881Z,90.22
2023-03-26T10:06:47.822Z,89.81
2023-03-26T10:07:47.846Z,90.52
2023-03-26T10:08:47.826Z,90.79
2023-03-26T10:09:47.783Z,90.69
2023-03-26T10:10:47.810Z,89.62
2023-03-26T10:11:47.778Z,88.18
2023-03-26T10:12:47.764Z,88.56
2023-03-26T10:13:47.816Z,87.26
2023-03-26T10:14:47.720Z,86.99
2023-03-26T10:15:47.767Z,88.64
2023-03-26T10:16:47.741Z,88.84
2023-03-26T10:17:47.755Z,90.07
2023-03-26T10:18:47.689Z,89.56
2023-03-26T10:19:47.667Z,89.36
2023-03-26T10:20:47.769Z,90.22
2023-03-26T10:21:47.727Z,90.17
2023-03-26T10:22:47.645Z,90.83
2023-03-26T10:23:47.621Z,90.93
2023-03-26T10:24:47.595Z,90.56
2023-03-26T10:25:47.680Z,90.16
2023-03-26T10:27:08.731Z,89.64
2023-03-26T10:27:47.560Z,89.90
2023-03-26T10:28:47.558Z,89.56
2023-03-26T10:29:47.526Z,89.25
2023-03-26T10:30:47.569Z,88.59
2023-03-26T10:31:47.570Z,89.11
2023-03-26T10:32:47.517Z,88.49
2023-03-26T10:33:47.503Z,89.11
2023-03-26T10:34:47.474Z,86.75
2023-03-26T10:35:47.496Z,86.04
2023-03-26T10:36:47.460Z,86.65
2023-03-26T10:37:47.443Z,86.10
2023-03-26T10:38:47.400Z,85.99
2023-03-26T10:39:47.409Z,85.58
2023-03-26T10:40:47.432Z,85.07
2023-03-26T10:41:47.374Z,84.50
2023-03-26T10:42:47.376Z,84.77
2023-03-26T10:43:57.701Z,84.29
2023-03-26T10:44:47.345Z,84.50
2023-03-26T10:45:47.398Z,85.28
2023-03-26T10:46:47.332Z,83.58
2023-03-26T10:47:47.319Z,83.68
2023-03-26T10:48:47.288Z,83.47
2023-03-26T10:49:47.268Z,83.84
2023-03-26T10:50:47.291Z,83.17
2023-03-26T10:51:47.281Z,82.76
2023-03-26T10:52:47.237Z,81.57
2023-03-26T10:53:47.246Z,82.59
2023-03-26T10:54:47.195Z,82.24
2023-03-26T10:55:47.218Z,82.86
2023-03-26T10:56:47.242Z,81.73
2023-03-26T10:57:47.164Z,81.43
2023-03-26T10:58:49.331Z,81.29
2023-03-26T10:59:47.159Z,81.08
2023-03-26T11:00:47.139Z,80.26
2023-03-26T11:01:47.210Z,80.39
2023-03-26T11:02:47.135Z,79.71
2023-03-26T11:03:47.081Z,79.54
2023-03-26T11:04:47.154Z,79.75
2023-03-26T11:05:47.150Z,81.59
2023-03-26T11:06:47.147Z,80.67
2023-03-26T11:07:47.059Z,80.02
2023-03-26T11:08:47.009Z,79.71
2023-03-26T11:09:47.009Z,78.75
2023-03-26T11:10:47.019Z,79.57
2023-03-26T11:11:47.009Z,78.52
2023-03-26T11:12:46.966Z,76.88
2023-03-26T11:13:46.967Z,78.44
2023-03-26T11:14:46.939Z,76.74
2023-03-26T11:15:46.959Z,76.40
2023-03-26T11:16:46.964Z,76.33
2023-03-26T11:17:46.925Z,77.86
2023-03-26T11:18:46.893Z,75.48
2023-03-26T11:19:46.896Z,74.15
2023-03-26T11:20:46.880Z,76.26
2023-03-26T11:21:46.913Z,75.34
2023-03-26T11:22:46.882Z,74.59
2023-03-26T11:23:46.825Z,76.19
2023-03-26T11:24:46.829Z,75.04
2023-03-26T11:25:46.828Z,76.30
2023-03-26T11:26:46.798Z,76.26
2023-03-26T11:27:46.776Z,75.55
2023-03-26T11:29:03.223Z,76.06
2023-03-26T11:29:46.764Z,74.93
2023-03-26T11:30:46.774Z,74.93
2023-03-26T11:31:46.796Z,76.43
2023-03-26T11:32:46.717Z,75.48
2023-03-26T11:33:47.181Z,75.99
2023-03-26T11:34:46.768Z,74.22
2023-03-26T11:35:46.722Z,75.55
2023-03-26T11:36:46.652Z,75.34
2023-03-26T11:37:46.731Z,75.68
2023-03-26T11:38:46.624Z,74.90
2023-03-26T11:39:46.620Z,74.59
2023-03-26T11:40:46.640Z,72.58
2023-03-26T11:41:46.592Z,74.42
2023-03-26T11:42:46.650Z,74.01
2023-03-26T11:43:46.598Z,75.10
2023-03-26T11:44:46.546Z,72.86
2023-03-26T11:45:46.606Z,73.36
2023-03-26T11:46:46.566Z,73.64
2023-03-26T11:47:46.593Z,73.50
2023-03-26T11:48:46.535Z,71.39
2023-03-26T11:49:46.524Z,71.80
2023-03-26T11:50:46.476Z,71.09
2023-03-26T11:51:46.461Z,70.37
2023-03-26T11:52:47.108Z,70.48
2023-03-26T11:53:46.439Z,71.73
2023-03-26T11:54:46.411Z,71.94
2023-03-26T11:55:46.430Z,71.73
2023-03-26T11:57:05.735Z,70.10
2023-03-26T11:57:46.400Z,71.02
2023-03-26T11:58:46.384Z,69.49
2023-03-26T11:59:56.480Z,68.84
2023-03-26T12:00:46.345Z,67.11
2023-03-26T12:01:46.373Z,67.79
2023-03-26T12:02:46.410Z,66.94
2023-03-26T12:03:46.296Z,68.03
2023-03-26T12:04:46.376Z,67.52
2023-03-26T12:05:46.273Z,67.62
2023-03-26T12:06:46.269Z,67.08
2023-03-26T12:07:46.288Z,66.06
2023-03-26T12:08:46.270Z,66.19
2023-03-26T12:09:46.219Z,66.30
2023-03-26T12:10:46.240Z,65.28
2023-03-26T12:11:46.191Z,66.77
2023-03-26T12:12:46.215Z,68.10
2023-03-26T12:13:46.200Z,67.52
2023-03-26T12:14:46.150Z,65.99
2023-03-26T12:15:46.145Z,65.37
2023-03-26T12:16:46.192Z,65.34
2023-03-26T12:17:46.202Z,64.25
2023-03-26T12:18:46.098Z,65.78
2023-03-26T12:19:46.121Z,66.27
2023-03-26T12:20:46.095Z,66.16
2023-03-26T12:21:46.100Z,65.45
2023-03-26T12:22:47.801Z,65.42
2023-03-26T12:23:46.041Z,65.08
2023-03-26T12:24:46.013Z,62.97
2023-03-26T12:25:46.042Z,64.37
2023-03-26T12:26:46.001Z,63.96
2023-03-26T12:27:45.981Z,63.53
2023-03-26T12:28:46.061Z,63.53
2023-03-26T12:29:45.958Z,65.43
2023-03-26T12:30:45.942Z,61.93
2023-03-26T12:31:46.016Z,61.93
2023-03-26T12:32:46.926Z,63.04
2023-03-26T12:33:51.906Z,62.23
2023-03-26T12:34:45.901Z,64.75
2023-03-26T12:35:45.922Z,64.84
2023-03-26T12:36:45.890Z,63.45
2023-03-26T12:37:45.860Z,63.58
2023-03-26T12:38:45.895Z,64.50
2023-03-26T12:40:10.631Z,63.99
2023-03-26T12:40:45.834Z,64.06
2023-03-26T12:44:43.310Z,64.53
2023-03-26T12:44:59.624Z,64.53
2023-03-26T12:45:05.311Z,66.53
2023-03-26T12:47:55.646Z,65.81
2023-03-26T12:48:07.208Z,65.92
2023-03-26T12:48:12.880Z,67.35
2023-03-26T12:49:12.917Z,67.11
2023-03-26T12:50:12.777Z,66.30
2023-03-26T12:51:12.738Z,65.86
2023-03-26T12:52:12.771Z,64.43
2023-03-26T12:53:12.789Z,62.82
2023-03-26T12:54:12.722Z,63.95
2023-03-26T12:55:12.683Z,64.15